createdAt,value
2019-05-23T00:00:34.418Z,6.98
2019-05-23T00:03:04.487Z,6.92
2019-05-23T00:05:42.978Z,6.99
2019-05-23T00:08:17.009Z,7.04
2019-05-23T00:10:53.204Z,7.04
2019-05-23T00:13:40.985Z,7.10
2019-05-23T00:16:10.035Z,7.05
2019-05-23T00:18:39.437Z,7.11
2019-05-23T00:21:09.297Z,7.06
2019-05-23T00:23:39.238Z,7.07
2019-05-23T00:26:08.072Z,7.05
2019-05-23T00:28:37.112Z,7.06
2019-05-23T00:31:15.771Z,7.02
2019-05-23T00:33:44.855Z,6.91
2019-05-23T00:36:14.130Z,6.74
2019-05-23T00:38:44.125Z,6.67
2019-05-23T00:41:13.761Z,6.39
2019-05-23T00:43:43.179Z,6.44
2019-05-23T00:46:12.431Z,6.42
2019-05-23T00:48:41.797Z,6.38
2019-05-23T00:51:11.640Z,6.33
2019-05-23T00:53:40.469Z,6.46
2019-05-23T00:56:09.894Z,6.46
2019-05-23T00:58:39.268Z,6.46
2019-05-23T01:01:08.998Z,6.49
2019-05-23T01:03:39.003Z,6.68
2019-05-23T01:06:07.745Z,6.57
2019-05-23T01:08:38.052Z,6.58
2019-05-23T01:11:08.028Z,6.38
2019-05-23T01:13:37.488Z,6.38
2019-05-23T01:16:06.869Z,6.32
2019-05-23T01:18:36.004Z,6.49
2019-05-23T01:21:22.828Z,6.40
2019-05-23T01:23:56.267Z,6.51
2019-05-23T01:26:26.325Z,6.40
2019-05-23T01:28:55.427Z,6.27
2019-05-23T01:31:27.283Z,6.40
2019-05-23T01:33:56.647Z,6.38
2019-05-23T01:36:25.609Z,6.23
2019-05-23T01:38:54.707Z,6.28
2019-05-23T01:41:23.879Z,6.27
2019-05-23T01:43:54.050Z,6.38
2019-05-23T01:46:22.868Z,6.31
2019-05-23T01:48:51.580Z,6.13
2019-05-23T01:51:22.206Z,6.19
2019-05-23T01:53:52.069Z,6.20
2019-05-23T01:56:21.157Z,6.18
2019-05-23T01:58:51.121Z,6.16
2019-05-23T02:01:22.125Z,6.14
2019-05-23T02:03:51.138Z,6.21
2019-05-23T02:06:19.925Z,6.14
2019-05-23T02:08:48.660Z,6.01
2019-05-23T02:11:19.439Z,5.87
2019-05-23T02:13:48.477Z,6.00
2019-05-23T02:16:18.090Z,5.78
2019-05-23T02:18:47.599Z,5.80
2019-05-23T02:21:17.653Z,5.93
2019-05-23T02:23:47.264Z,5.84
2019-05-23T02:26:16.135Z,5.88
2019-05-23T02:28:45.176Z,5.96
2019-05-23T02:31:14.179Z,5.98
2019-05-23T02:33:43.577Z,5.97
2019-05-23T02:36:12.794Z,6.21
2019-05-23T02:39:00.618Z,6.12
2019-05-23T02:41:40.648Z,6.21
2019-05-23T02:44:19.064Z,6.08
2019-05-23T02:46:51.850Z,6.17
2019-05-23T02:49:22.985Z,6.09
2019-05-23T02:51:53.776Z,6.00
2019-05-23T02:54:25.853Z,6.08
2019-05-23T02:56:57.713Z,5.97
2019-05-23T02:59:41.896Z,5.94
2019-05-23T03:02:46.219Z,6.00
2019-05-23T03:05:18.179Z,5.96
2019-05-23T03:07:48.038Z,6.00
2019-05-23T03:10:19.842Z,6.19
2019-05-23T03:12:49.475Z,6.18
2019-05-23T03:15:19.279Z,6.10
2019-05-23T03:17:52.666Z,6.28
2019-05-23T03:20:22.111Z,6.23
2019-05-23T03:23:01.922Z,6.41
2019-05-23T03:26:00.255Z,6.55
2019-05-23T03:28:32.732Z,6.47
2019-05-23T03:31:27.258Z,6.49
2019-05-23T03:33:36.977Z,6.36
2019-05-23T03:36:07.629Z,6.40
2019-05-23T03:38:36.763Z,6.40
2019-05-23T03:41:08.092Z,6.38
2019-05-23T03:43:37.028Z,6.26
2019-05-23T03:46:09.048Z,6.19
2019-05-23T03:48:38.556Z,6.25
2019-05-23T03:51:09.323Z,6.36
2019-05-23T03:53:38.479Z,6.28
2019-05-23T03:56:07.729Z,6.31
2019-05-23T03:58:37.557Z,6.43
2019-05-23T04:01:09.153Z,6.48
2019-05-23T04:03:40.135Z,6.41
2019-05-23T04:06:09.400Z,6.34
2019-05-23T04:08:38.810Z,6.41
2019-05-23T04:11:08.083Z,6.40
2019-05-23T04:13:36.917Z,6.46
2019-05-23T04:16:06.547Z,6.46
2019-05-23T04:18:36.019Z,6.50
2019-05-23T04:21:04.975Z,6.59
2019-05-23T04:23:33.863Z,6.61
2019-05-23T04:26:03.054Z,6.64
2019-05-23T04:28:32.170Z,6.79
2019-05-23T04:31:01.692Z,6.74
2019-05-23T04:33:30.596Z,6.76
2019-05-23T04:35:59.657Z,6.91
2019-05-23T04:38:28.447Z,7.09
2019-05-23T04:40:57.448Z,7.06
2019-05-23T04:43:26.351Z,7.15
2019-05-23T04:45:55.123Z,7.17
2019-05-23T04:48:31.373Z,7.22
2019-05-23T04:51:13.090Z,7.41
2019-05-23T04:54:09.106Z,7.24
2019-05-23T05:00:07.529Z,7.38
2019-05-23T05:06:24.964Z,7.53
2019-05-23T05:09:41.550Z,7.79
2019-05-23T05:12:31.481Z,7.83
2019-05-23T05:15:16.501Z,7.79
2019-05-23T05:18:04.755Z,7.95
2019-05-23T05:20:57.537Z,8.05
2019-05-23T05:27:12.001Z,8.62
2019-05-23T05:33:16.585Z,8.81
2019-05-23T05:35:52.457Z,8.94
2019-05-23T05:38:52.565Z,9.10
2019-05-23T05:41:55.807Z,9.10
2019-05-23T05:44:36.094Z,9.23
2019-05-23T05:48:29.193Z,9.36
2019-05-23T05:50:51.401Z,9.35
2019-05-23T05:53:32.885Z,9.49
2019-05-23T05:59:49.469Z,9.76
2019-05-23T06:03:04.120Z,9.80
2019-05-23T06:06:57.317Z,9.98
2019-05-23T06:19:38.963Z,10.44
2019-05-23T06:29:26.251Z,10.76
2019-05-23T06:32:56.234Z,10.90
2019-05-23T06:35:37.552Z,11.00
2019-05-23T06:39:16.947Z,11.06
2019-05-23T06:43:10.250Z,11.20
2019-05-23T06:49:27.892Z,11.36
2019-05-23T06:52:50.098Z,11.49
2019-05-23T06:59:14.657Z,11.73
2019-05-23T07:02:05.181Z,11.84
2019-05-23T07:05:42.275Z,11.85
2019-05-23T07:08:04.984Z,11.98
2019-05-23T07:10:59.656Z,12.05
2019-05-23T07:21:06.278Z,12.34
2019-05-23T07:24:20.502Z,12.44
2019-05-23T07:34:01.802Z,12.80
2019-05-23T07:36:58.029Z,12.82
2019-05-23T07:39:52.417Z,12.91
2019-05-23T07:43:24.675Z,13.00
2019-05-23T07:46:27.674Z,13.16
2019-05-23T07:49:34.658Z,13.13
2019-05-23T07:56:00.317Z,13.26
2019-05-23T07:58:49.003Z,13.40
2019-05-23T08:01:40.724Z,13.47
2019-05-23T08:04:58.351Z,13.52
2019-05-23T08:11:19.232Z,13.62
2019-05-23T08:14:39.428Z,13.68
2019-05-23T08:17:47.762Z,13.67
2019-05-23T08:21:05.125Z,13.62
2019-05-23T08:24:17.465Z,13.74
2019-05-23T08:27:35.095Z,13.80
2019-05-23T08:30:55.744Z,13.61
2019-05-23T08:33:52.844Z,13.97
2019-05-23T08:37:07.223Z,14.17
2019-05-23T08:40:27.377Z,14.33
2019-05-23T08:46:48.572Z,14.57
2019-05-23T08:53:49.333Z,14.76
2019-05-23T08:56:23.401Z,14.84
2019-05-23T08:59:37.023Z,14.91
2019-05-23T09:06:24.977Z,15.14
2019-05-23T09:13:32.308Z,15.54
2019-05-23T09:17:03.112Z,15.65
2019-05-23T09:20:30.274Z,15.50
2019-05-23T09:23:37.759Z,15.45
2019-05-23T09:26:58.118Z,15.44
2019-05-23T09:29:43.493Z,15.62
2019-05-23T09:39:49.528Z,15.79
2019-05-23T09:49:41.472Z,16.23
2019-05-23T09:56:25.831Z,16.26
2019-05-23T09:59:30.610Z,16.45
2019-05-23T10:03:00.148Z,16.25
2019-05-23T10:06:08.004Z,16.18
2019-05-23T10:12:23.328Z,15.90
2019-05-23T10:14:52.131Z,16.19
2019-05-23T10:17:21.124Z,16.39
2019-05-23T10:20:03.176Z,16.67
2019-05-23T10:23:04.696Z,16.58
2019-05-23T10:25:46.292Z,16.68
2019-05-23T10:28:30.252Z,16.78
2019-05-23T10:31:09.286Z,17.02
2019-05-23T10:33:49.503Z,17.24
2019-05-23T10:36:24.008Z,17.34
2019-05-23T10:39:36.106Z,17.45
2019-05-23T10:42:36.682Z,17.43
2019-05-23T10:45:14.622Z,17.60
2019-05-23T10:48:13.577Z,17.77
2019-05-23T10:51:08.411Z,17.47
2019-05-23T10:53:49.022Z,17.13
2019-05-23T10:56:42.492Z,17.49
2019-05-23T10:59:11.815Z,17.38
2019-05-23T11:01:41.000Z,17.27
2019-05-23T11:04:09.725Z,17.33
2019-05-23T11:06:38.484Z,17.46
2019-05-23T11:09:09.062Z,17.09
2019-05-23T11:11:38.399Z,17.28
2019-05-23T11:14:09.205Z,17.48
2019-05-23T11:16:38.445Z,17.79
2019-05-23T11:19:08.777Z,17.82
2019-05-23T11:21:37.691Z,17.88
2019-05-23T11:24:06.815Z,17.80
2019-05-23T11:26:36.030Z,17.63
2019-05-23T11:29:06.301Z,17.60
2019-05-23T11:31:35.308Z,17.36
2019-05-23T11:34:04.849Z,17.53
2019-05-23T11:36:36.501Z,17.82
2019-05-23T11:39:06.887Z,17.94
2019-05-23T11:41:35.717Z,18.18
2019-05-23T11:44:04.635Z,18.13
2019-05-23T11:46:35.406Z,18.31
2019-05-23T11:49:05.334Z,18.35
2019-05-23T11:51:35.711Z,18.16
2019-05-23T11:54:08.318Z,18.20
2019-05-23T11:56:37.130Z,18.13
2019-05-23T11:59:06.441Z,18.26
2019-05-23T12:01:54.294Z,18.25
2019-05-23T12:04:26.432Z,18.08
2019-05-23T12:06:59.086Z,18.52
2019-05-23T12:09:28.138Z,18.88
2019-05-23T12:11:56.980Z,18.86
2019-05-23T12:14:25.884Z,18.65
2019-05-23T12:16:56.292Z,18.84
2019-05-23T12:19:25.306Z,18.60
2019-05-23T12:21:54.222Z,18.41
2019-05-23T12:24:23.172Z,18.41
2019-05-23T12:26:52.116Z,18.25
2019-05-23T12:29:21.197Z,18.56
2019-05-23T12:31:50.189Z,19.14
2019-05-23T12:34:19.038Z,19.73
2019-05-23T12:36:47.785Z,19.99
2019-05-23T12:39:16.601Z,19.75
2019-05-23T12:41:45.421Z,19.40
2019-05-23T12:44:17.550Z,19.59
2019-05-23T12:46:45.578Z,19.94
2019-05-23T12:49:39.622Z,19.41
2019-05-23T12:52:11.247Z,19.27
2019-05-23T12:54:40.144Z,19.22
2019-05-23T12:57:09.495Z,19.07
2019-05-23T12:59:38.320Z,18.92
2019-05-23T13:02:11.079Z,18.88
2019-05-23T13:04:40.555Z,18.97
2019-05-23T13:07:10.070Z,18.71
2019-05-23T13:09:39.647Z,18.83
2019-05-23T13:12:08.522Z,18.90
2019-05-23T13:14:37.341Z,18.78
2019-05-23T13:17:07.056Z,18.81
2019-05-23T13:19:37.178Z,18.78
2019-05-23T13:22:07.846Z,18.81
2019-05-23T13:24:51.912Z,18.58
2019-05-23T13:27:07.448Z,18.79
2019-05-23T13:29:36.821Z,18.92
2019-05-23T13:32:07.021Z,19.31
2019-05-23T13:34:36.290Z,19.29
2019-05-23T13:37:07.559Z,19.08
2019-05-23T13:39:36.548Z,19.56
2019-05-23T13:42:05.470Z,19.67
2019-05-23T13:44:36.057Z,19.73
2019-05-23T13:47:05.269Z,19.57
2019-05-23T13:49:34.303Z,19.21
2019-05-23T13:52:03.349Z,19.26
2019-05-23T13:54:36.171Z,19.62
2019-05-23T13:57:07.253Z,19.59
2019-05-23T13:59:37.650Z,19.36
2019-05-23T14:02:08.698Z,19.24
2019-05-23T14:04:37.544Z,19.20
2019-05-23T14:07:08.540Z,19.20
2019-05-23T14:09:38.446Z,19.49
2019-05-23T14:12:20.561Z,19.27
2019-05-23T14:14:38.838Z,19.30
2019-05-23T14:17:28.312Z,19.50
2019-05-23T14:19:57.071Z,19.48
2019-05-23T14:22:26.287Z,19.58
2019-05-23T14:24:55.154Z,19.43
2019-05-23T14:27:33.734Z,19.55
2019-05-23T14:30:11.291Z,19.64
2019-05-23T14:32:41.725Z,19.96
2019-05-23T14:35:11.382Z,19.92
2019-05-23T14:37:44.178Z,19.92
2019-05-23T14:40:14.920Z,20.14
2019-05-23T14:43:02.707Z,20.10
2019-05-23T14:45:44.797Z,20.08
2019-05-23T14:48:24.382Z,20.26
2019-05-23T14:51:24.411Z,20.19
2019-05-23T14:53:58.836Z,20.19
2019-05-23T14:56:28.842Z,20.34
2019-05-23T14:58:57.648Z,20.33
2019-05-23T15:01:28.479Z,20.14
2019-05-23T15:03:57.233Z,20.39
2019-05-23T15:06:25.977Z,20.55
2019-05-23T15:08:54.971Z,20.57
2019-05-23T15:11:23.697Z,20.59
2019-05-23T15:13:52.820Z,20.19
2019-05-23T15:16:22.031Z,20.56
2019-05-23T15:18:50.878Z,20.76
2019-05-23T15:21:19.699Z,20.82
2019-05-23T15:23:48.582Z,20.61
2019-05-23T15:26:23.000Z,20.19
2019-05-23T15:28:47.785Z,20.71
2019-05-23T15:31:16.699Z,20.73
2019-05-23T15:33:45.432Z,20.65
2019-05-23T15:36:14.268Z,20.77
2019-05-23T15:38:43.049Z,20.54
2019-05-23T15:41:11.875Z,20.23
2019-05-23T15:43:40.594Z,20.04
2019-05-23T15:46:09.502Z,19.97
2019-05-23T15:48:38.372Z,20.18
2019-05-23T15:51:09.397Z,20.09
2019-05-23T15:53:46.506Z,20.07
2019-05-23T15:56:27.868Z,19.97
2019-05-23T15:59:00.478Z,19.85
2019-05-23T16:01:38.815Z,20.10
2019-05-23T16:04:11.208Z,19.94
2019-05-23T16:06:41.392Z,19.89
2019-05-23T16:09:27.823Z,19.88
2019-05-23T16:11:44.193Z,19.88
2019-05-23T16:14:13.363Z,20.01
2019-05-23T16:16:42.795Z,20.08
2019-05-23T16:19:12.022Z,20.17
2019-05-23T16:21:41.227Z,20.21
2019-05-23T16:26:38.279Z,19.97
2019-05-23T16:29:08.048Z,19.93
2019-05-23T16:31:38.312Z,20.08
2019-05-23T16:34:07.356Z,19.85
2019-05-23T16:36:36.542Z,19.64
2019-05-23T16:39:07.430Z,19.79
2019-05-23T16:41:36.432Z,19.73
2019-05-23T16:44:05.356Z,19.67
2019-05-23T16:46:34.306Z,19.76
2019-05-23T16:49:03.273Z,19.71
2019-05-23T16:51:32.290Z,19.88
2019-05-23T16:54:01.822Z,19.69
2019-05-23T16:56:36.119Z,19.74
2019-05-23T16:59:16.953Z,19.91
2019-05-23T17:02:07.172Z,19.91
2019-05-23T17:05:08.406Z,19.68
2019-05-23T17:07:40.465Z,19.77
2019-05-23T17:10:14.111Z,19.69
2019-05-23T17:12:50.629Z,20.00
2019-05-23T17:15:42.656Z,19.79
2019-05-23T17:18:27.590Z,20.01
2019-05-23T17:21:05.248Z,19.84
2019-05-23T17:23:51.998Z,19.80
2019-05-23T17:26:32.653Z,19.97
2019-05-23T17:29:02.481Z,19.92
2019-05-23T17:31:34.555Z,19.85
2019-05-23T17:34:03.563Z,19.82
2019-05-23T17:36:32.380Z,19.59
2019-05-23T17:39:01.197Z,19.58
2019-05-23T17:41:30.118Z,19.57
2019-05-23T17:43:58.962Z,19.50
2019-05-23T17:46:29.289Z,19.44
2019-05-23T17:48:58.181Z,19.39
2019-05-23T17:51:27.442Z,19.35
2019-05-23T17:53:56.355Z,19.15
2019-05-23T17:56:25.477Z,18.99
2019-05-23T17:58:54.239Z,19.03
2019-05-23T18:01:24.702Z,18.90
2019-05-23T18:03:53.710Z,18.79
2019-05-23T18:06:23.096Z,18.44
2019-05-23T18:08:51.842Z,17.81
2019-05-23T18:11:20.569Z,17.51
2019-05-23T18:13:50.164Z,17.21
2019-05-23T18:16:19.937Z,17.17
2019-05-23T18:18:48.668Z,16.73
2019-05-23T18:21:17.387Z,16.54
2019-05-23T18:23:46.294Z,16.44
2019-05-23T18:26:15.017Z,16.29
2019-05-23T18:28:44.344Z,16.32
2019-05-23T18:31:18.132Z,16.22
2019-05-23T18:33:47.258Z,16.14
2019-05-23T18:36:16.417Z,16.13
2019-05-23T18:38:46.262Z,15.97
2019-05-23T18:41:15.582Z,15.66
2019-05-23T18:43:45.468Z,15.63
2019-05-23T18:46:24.739Z,15.45
2019-05-23T18:48:54.466Z,15.35
2019-05-23T18:51:23.922Z,15.24
2019-05-23T18:53:52.994Z,15.23
2019-05-23T18:56:21.901Z,15.14
2019-05-23T18:58:51.099Z,14.97
2019-05-23T19:01:25.715Z,14.79
2019-05-23T19:03:55.924Z,14.69
2019-05-23T19:06:25.055Z,14.62
2019-05-23T19:08:54.464Z,14.56
2019-05-23T19:11:23.682Z,14.40
2019-05-23T19:13:55.191Z,14.44
2019-05-23T19:16:24.616Z,14.29
2019-05-23T19:18:53.860Z,14.21
2019-05-23T19:21:23.441Z,14.12
2019-05-23T19:23:52.721Z,14.10
2019-05-23T19:26:22.951Z,14.00
2019-05-23T19:28:52.167Z,13.86
2019-05-23T19:31:21.683Z,13.83
2019-05-23T19:33:51.140Z,13.76
2019-05-23T19:36:20.383Z,13.67
2019-05-23T19:38:49.777Z,13.61
2019-05-23T19:41:34.472Z,13.64
2019-05-23T19:43:50.641Z,13.61
2019-05-23T19:46:19.610Z,13.49
2019-05-23T19:48:48.485Z,13.41
2019-05-23T19:51:18.050Z,13.44
2019-05-23T19:53:47.028Z,13.47
2019-05-23T19:56:16.040Z,13.48
2019-05-23T19:58:45.116Z,13.36
2019-05-23T20:01:14.405Z,13.19
2019-05-23T20:03:43.765Z,13.28
2019-05-23T20:06:13.384Z,13.28
2019-05-23T20:08:42.502Z,13.23
2019-05-23T20:11:11.506Z,13.25
2019-05-23T20:13:40.441Z,13.18
2019-05-23T20:16:09.450Z,12.88
2019-05-23T20:18:38.191Z,12.86
2019-05-23T20:21:07.264Z,12.87
2019-05-23T20:23:36.061Z,12.79
2019-05-23T20:26:08.103Z,12.79
2019-05-23T20:28:39.891Z,12.69
2019-05-23T20:31:07.141Z,12.68
2019-05-23T20:33:36.175Z,12.53
2019-05-23T20:36:13.235Z,12.54
2019-05-23T20:38:42.145Z,12.47
2019-05-23T20:41:11.352Z,12.57
2019-05-23T20:43:40.076Z,12.50
2019-05-23T20:46:09.058Z,12.47
2019-05-23T20:48:37.983Z,12.45
2019-05-23T20:51:07.641Z,12.44
2019-05-23T20:53:36.686Z,12.44
2019-05-23T20:56:05.608Z,12.50
2019-05-23T20:58:34.425Z,12.45
2019-05-23T21:01:09.913Z,12.35
2019-05-23T21:03:38.989Z,12.33
2019-05-23T21:06:07.928Z,12.30
2019-05-23T21:08:36.768Z,12.21
2019-05-23T21:11:05.637Z,12.27
2019-05-23T21:13:34.383Z,12.18
2019-05-23T21:16:04.367Z,12.10
2019-05-23T21:18:33.397Z,12.14
2019-05-23T21:21:02.134Z,12.05
2019-05-23T21:23:30.987Z,12.03
2019-05-23T21:26:05.909Z,11.93
2019-05-23T21:28:35.318Z,11.95
2019-05-23T21:31:07.687Z,11.89
2019-05-23T21:33:36.625Z,11.94
2019-05-23T21:36:05.542Z,11.72
2019-05-23T21:38:34.343Z,11.88
2019-05-23T21:41:03.792Z,12.16
2019-05-23T21:43:32.686Z,11.98
2019-05-23T21:46:01.408Z,11.83
2019-05-23T21:48:30.394Z,11.67
2019-05-23T21:50:59.206Z,11.54
2019-05-23T21:53:28.222Z,11.33
2019-05-23T21:55:57.024Z,11.26
2019-05-23T21:58:26.027Z,11.31
2019-05-23T22:01:25.175Z,11.22
2019-05-23T22:04:12.120Z,11.19
2019-05-23T22:06:43.466Z,11.42
2019-05-23T22:09:13.222Z,11.44
2019-05-23T22:11:42.271Z,11.34
2019-05-23T22:14:11.349Z,11.55
2019-05-23T22:16:40.364Z,11.32
2019-05-23T22:19:11.930Z,11.32
2019-05-23T22:21:40.672Z,11.41
2019-05-23T22:24:09.760Z,11.18
2019-05-23T22:26:38.542Z,10.95
2019-05-23T22:29:07.588Z,10.98
2019-05-23T22:31:36.500Z,10.80
2019-05-23T22:34:11.926Z,11.06
2019-05-23T22:36:41.727Z,11.10
2019-05-23T22:39:10.616Z,11.23
2019-05-23T22:41:39.408Z,11.07
2019-05-23T22:44:08.459Z,11.07
2019-05-23T22:46:37.893Z,11.07
2019-05-23T22:49:06.625Z,11.07
2019-05-23T22:51:35.713Z,11.02
2019-05-23T22:54:04.620Z,11.14
2019-05-23T22:56:33.327Z,11.11
2019-05-23T22:59:02.340Z,11.11
2019-05-23T23:01:31.046Z,11.21
2019-05-23T23:03:59.856Z,11.23
2019-05-23T23:06:28.873Z,11.21
2019-05-23T23:08:57.733Z,11.08
2019-05-23T23:11:26.424Z,11.18
2019-05-23T23:13:55.215Z,11.11
2019-05-23T23:16:23.959Z,11.06
2019-05-23T23:18:52.692Z,11.02
2019-05-23T23:21:21.431Z,10.76
2019-05-23T23:23:50.418Z,10.95
2019-05-23T23:26:19.367Z,10.79
2019-05-23T23:28:48.076Z,11.01
2019-05-23T23:31:16.810Z,10.74
2019-05-23T23:33:45.833Z,10.83
2019-05-23T23:36:14.577Z,10.79
2019-05-23T23:38:43.382Z,10.83
2019-05-23T23:41:12.084Z,10.71
2019-05-23T23:43:58.003Z,10.60
2019-05-23T23:46:30.301Z,10.63
2019-05-23T23:49:16.965Z,10.64
2019-05-23T23:52:03.324Z,10.54
2019-05-23T23:54:50.035Z,10.43
2019-05-23T23:57:36.377Z,10.47
